createdAt,value
2018-03-14T00:01:38.781Z,2.10
2018-03-14T00:04:06.249Z,3.07
2018-03-14T00:06:33.720Z,2.47
2018-03-14T00:09:01.176Z,2.63
2018-03-14T00:11:28.637Z,2.10
2018-03-14T00:13:56.089Z,2.03
2018-03-14T00:16:23.534Z,2.23
2018-03-14T00:18:51.761Z,2.27
2018-03-14T00:21:19.225Z,2.20
2018-03-14T00:23:46.654Z,2.43
2018-03-14T00:26:14.905Z,2.40
2018-03-14T00:28:42.347Z,2.13
2018-03-14T00:31:09.811Z,2.40
2018-03-14T00:33:37.275Z,2.00
2018-03-14T00:36:04.735Z,2.10
2018-03-14T00:38:32.188Z,2.27
2018-03-14T00:40:59.654Z,2.47
2018-03-14T00:43:27.123Z,2.47
2018-03-14T00:45:54.568Z,2.67
2018-03-14T00:48:22.019Z,2.20
2018-03-14T00:50:49.479Z,2.57
2018-03-14T00:53:16.932Z,2.37
2018-03-14T00:55:44.392Z,2.50
2018-03-14T00:58:11.847Z,2.50
2018-03-14T01:00:40.055Z,2.37
2018-03-14T01:03:07.510Z,2.50
2018-03-14T01:05:34.960Z,2.60
2018-03-14T01:08:02.422Z,2.50
2018-03-14T01:10:29.860Z,2.60
2018-03-14T01:12:57.320Z,3.60
2018-03-14T01:15:24.762Z,2.90
2018-03-14T01:17:52.228Z,2.90
2018-03-14T01:20:19.663Z,2.90
2018-03-14T01:22:47.139Z,3.07
2018-03-14T01:25:14.603Z,2.93
2018-03-14T01:27:42.051Z,3.13
2018-03-14T01:30:09.491Z,2.50
2018-03-14T01:32:36.962Z,3.03
2018-03-14T01:35:04.427Z,2.80
2018-03-14T01:37:31.931Z,3.13
2018-03-14T01:39:59.383Z,3.43
2018-03-14T01:42:26.858Z,3.73
2018-03-14T01:44:54.295Z,3.37
2018-03-14T01:47:21.753Z,3.63
2018-03-14T01:49:49.212Z,5.13
2018-03-14T01:52:16.668Z,4.43
2018-03-14T01:54:44.132Z,4.80
2018-03-14T01:57:11.628Z,3.80
2018-03-14T01:59:39.920Z,4.87
2018-03-14T02:02:07.372Z,4.47
2018-03-14T02:04:34.844Z,3.90
2018-03-14T02:07:02.285Z,4.90
2018-03-14T02:09:29.752Z,4.97
2018-03-14T02:11:57.966Z,4.87
2018-03-14T02:14:26.193Z,5.23
2018-03-14T02:16:53.646Z,4.50
2018-03-14T02:19:21.105Z,5.03
2018-03-14T02:21:48.596Z,5.00
2018-03-14T02:24:16.051Z,5.63
2018-03-14T02:26:43.501Z,6.60
2018-03-14T02:29:10.942Z,5.63
2018-03-14T02:31:38.400Z,5.50
2018-03-14T02:34:06.615Z,5.80
2018-03-14T02:36:56.887Z,6.03
2018-03-14T02:39:24.328Z,8.20
2018-03-14T02:41:51.945Z,6.33
2018-03-14T02:44:19.414Z,6.03
2018-03-14T02:46:46.920Z,7.80
2018-03-14T02:49:15.158Z,6.03
2018-03-14T02:51:42.613Z,6.60
2018-03-14T02:54:10.063Z,8.70
2018-03-14T02:56:37.532Z,8.27
2018-03-14T02:59:04.989Z,9.10
2018-03-14T03:01:32.450Z,8.17
2018-03-14T03:03:59.899Z,8.07
2018-03-14T03:06:27.363Z,9.23
2018-03-14T03:08:54.827Z,9.40
2018-03-14T03:11:22.257Z,7.43
2018-03-14T03:13:50.503Z,8.20
2018-03-14T03:16:17.959Z,8.07
2018-03-14T03:18:45.407Z,8.27
2018-03-14T03:21:12.885Z,9.53
2018-03-14T03:23:40.337Z,9.00
2018-03-14T03:26:08.562Z,8.03
2018-03-14T03:28:36.800Z,8.07
2018-03-14T03:31:04.232Z,9.20
2018-03-14T03:33:31.699Z,9.00
2018-03-14T03:35:59.137Z,8.30
2018-03-14T03:38:27.352Z,8.93
2018-03-14T03:40:54.819Z,8.10
2018-03-14T03:43:22.282Z,8.67
2018-03-14T03:45:49.743Z,9.63
2018-03-14T03:48:17.188Z,9.17
2018-03-14T03:50:44.657Z,9.47
2018-03-14T03:53:12.118Z,8.77
2018-03-14T03:55:39.563Z,8.77
2018-03-14T03:58:07.010Z,8.00
2018-03-14T04:00:35.233Z,7.70
2018-03-14T04:03:02.694Z,7.73
2018-03-14T04:05:30.150Z,9.00
2018-03-14T04:07:57.604Z,9.50
2018-03-14T04:10:25.074Z,8.00
2018-03-14T04:12:54.067Z,7.83
2018-03-14T04:15:21.529Z,7.80
2018-03-14T04:17:48.980Z,8.00
2018-03-14T04:20:16.434Z,7.47
2018-03-14T04:22:44.670Z,7.73
2018-03-14T04:25:12.150Z,8.40
2018-03-14T04:27:39.590Z,8.13
2018-03-14T04:30:07.062Z,7.37
2018-03-14T04:32:34.518Z,6.63
2018-03-14T04:35:01.992Z,7.40
2018-03-14T04:37:29.430Z,7.03
2018-03-14T04:39:56.921Z,7.07
2018-03-14T04:42:24.375Z,7.47
2018-03-14T04:44:51.832Z,6.83
2018-03-14T04:47:19.294Z,6.37
2018-03-14T04:49:46.742Z,6.70
2018-03-14T04:52:14.188Z,6.23
2018-03-14T04:54:41.638Z,6.33
2018-03-14T04:57:09.091Z,6.47
2018-03-14T04:59:37.297Z,6.73
2018-03-14T05:02:04.795Z,6.30
2018-03-14T05:04:32.236Z,6.37
2018-03-14T05:06:59.691Z,6.50
2018-03-14T05:09:27.160Z,6.10
2018-03-14T05:11:54.612Z,6.30
2018-03-14T05:14:22.067Z,6.90
2018-03-14T05:16:49.506Z,6.70
2018-03-14T05:19:17.728Z,6.97
2018-03-14T05:21:45.195Z,6.80
2018-03-14T05:24:12.651Z,7.57
2018-03-14T05:26:40.146Z,7.90
2018-03-14T05:29:07.534Z,6.57
2018-03-14T05:31:35.752Z,7.00
2018-03-14T05:34:03.212Z,7.93
2018-03-14T05:36:30.684Z,7.47
2018-03-14T05:38:58.128Z,6.93
2018-03-14T05:41:25.592Z,6.93
2018-03-14T05:43:53.264Z,6.77
2018-03-14T05:46:20.707Z,6.70
2018-03-14T05:48:48.134Z,7.30
2018-03-14T05:51:15.581Z,6.43
2018-03-14T05:53:43.024Z,6.70
2018-03-14T05:56:10.470Z,6.43
2018-03-14T05:58:37.933Z,7.40
2018-03-14T06:01:05.366Z,6.97
2018-03-14T06:03:33.591Z,6.37
2018-03-14T06:06:01.044Z,6.83
2018-03-14T06:08:28.488Z,6.80
2018-03-14T06:10:55.943Z,6.90
2018-03-14T06:13:23.400Z,6.40
2018-03-14T06:15:51.603Z,6.60
2018-03-14T06:18:19.069Z,7.00
2018-03-14T06:20:46.514Z,7.73
2018-03-14T06:23:13.955Z,7.57
2018-03-14T06:25:42.179Z,8.53
2018-03-14T06:28:09.628Z,8.30
2018-03-14T06:30:37.069Z,8.13
2018-03-14T06:33:05.295Z,8.20
2018-03-14T06:35:32.742Z,8.70
2018-03-14T06:38:00.177Z,8.00
2018-03-14T06:40:28.402Z,7.40
2018-03-14T06:42:55.843Z,8.00
2018-03-14T06:45:23.312Z,8.43
2018-03-14T06:47:50.750Z,7.97
2018-03-14T06:50:18.966Z,8.53
2018-03-14T06:52:47.178Z,7.93
2018-03-14T06:55:14.626Z,10.13
2018-03-14T06:57:42.081Z,9.37
2018-03-14T07:00:21.465Z,7.67
2018-03-14T07:03:10.449Z,8.60
2018-03-14T07:05:49.603Z,10.47
2018-03-14T07:08:17.052Z,11.17
2018-03-14T07:10:44.499Z,9.73
2018-03-14T07:13:11.952Z,8.93
2018-03-14T07:15:39.399Z,10.07
2018-03-14T07:18:07.622Z,11.57
2018-03-14T07:20:35.061Z,10.30
2018-03-14T07:23:02.516Z,13.03
2018-03-14T07:25:29.962Z,13.17
2018-03-14T07:27:58.183Z,12.17
2018-03-14T07:30:25.642Z,10.17
2018-03-14T07:32:55.827Z,12.53
2018-03-14T07:35:24.044Z,13.67
2018-03-14T07:37:51.494Z,12.20
2018-03-14T07:40:18.958Z,14.13
2018-03-14T07:42:46.423Z,12.90
2018-03-14T07:45:13.886Z,13.20
2018-03-14T07:47:41.350Z,14.57
2018-03-14T07:50:08.798Z,14.43
2018-03-14T07:52:36.244Z,17.03
2018-03-14T07:55:04.467Z,15.70
2018-03-14T07:57:31.917Z,16.93
2018-03-14T07:59:59.358Z,17.37
2018-03-14T08:02:26.811Z,16.17
2018-03-14T08:04:55.028Z,16.77
2018-03-14T08:07:22.470Z,17.40
2018-03-14T08:09:49.901Z,17.97
2018-03-14T08:12:17.343Z,16.83
2018-03-14T08:14:44.823Z,16.67
2018-03-14T08:17:12.272Z,16.23
2018-03-14T08:19:39.726Z,18.20
2018-03-14T08:22:07.172Z,16.03
2018-03-14T08:24:34.623Z,17.80
2018-03-14T08:27:02.086Z,20.00
2018-03-14T08:29:29.505Z,18.77
2018-03-14T08:31:57.727Z,20.83
2018-03-14T08:34:25.245Z,17.27
2018-03-14T08:36:52.632Z,18.93
2018-03-14T08:39:20.069Z,18.07
2018-03-14T08:41:47.539Z,19.83
2018-03-14T08:44:15.766Z,18.80
2018-03-14T08:46:43.223Z,19.97
2018-03-14T08:49:11.498Z,19.73
2018-03-14T08:51:38.959Z,18.50
2018-03-14T08:54:06.417Z,18.23
2018-03-14T08:56:33.873Z,20.03
2018-03-14T08:59:01.335Z,19.37
2018-03-14T09:01:29.538Z,17.03
2018-03-14T09:03:56.990Z,19.73
2018-03-14T09:06:24.431Z,18.27
2018-03-14T09:08:52.639Z,20.50
2018-03-14T09:11:20.078Z,17.47
2018-03-14T09:13:47.524Z,18.40
2018-03-14T09:16:15.727Z,18.77
2018-03-14T09:18:43.198Z,18.00
2018-03-14T09:21:10.642Z,19.00
2018-03-14T09:23:38.101Z,19.17
2018-03-14T09:26:06.326Z,18.00
2018-03-14T09:28:34.542Z,19.20
2018-03-14T09:31:01.987Z,17.63
2018-03-14T09:33:29.442Z,16.97
2018-03-14T09:35:56.907Z,18.07
2018-03-14T09:38:24.377Z,19.20
2018-03-14T09:40:51.840Z,18.80
2018-03-14T09:43:19.301Z,19.17
2018-03-14T09:45:46.741Z,19.30
2018-03-14T09:48:14.182Z,19.43
2018-03-14T09:50:42.384Z,20.07
2018-03-14T09:53:09.827Z,18.80
2018-03-14T09:55:37.278Z,19.67
2018-03-14T09:58:04.722Z,19.73
2018-03-14T10:00:32.939Z,20.30
2018-03-14T10:03:00.396Z,20.17
2018-03-14T10:05:27.856Z,19.17
2018-03-14T10:07:55.312Z,19.77
2018-03-14T10:10:22.759Z,20.70
2018-03-14T10:12:50.959Z,18.23
2018-03-14T10:15:18.431Z,18.93
2018-03-14T10:17:45.881Z,18.50
2018-03-14T10:20:13.338Z,17.37
2018-03-14T10:22:40.795Z,17.77
2018-03-14T10:25:08.255Z,18.43
2018-03-14T10:27:36.484Z,20.00
2018-03-14T10:30:03.953Z,18.57
2018-03-14T10:32:31.397Z,17.37
2018-03-14T10:34:58.868Z,18.53
2018-03-14T10:37:26.338Z,17.87
2018-03-14T10:39:53.800Z,16.30
2018-03-14T10:42:21.238Z,15.27
2018-03-14T10:44:48.715Z,14.87
2018-03-14T10:47:16.144Z,12.93
2018-03-14T10:49:43.605Z,9.87
2018-03-14T10:52:11.840Z,8.90
2018-03-14T10:54:39.253Z,8.70
2018-03-14T10:57:06.694Z,8.33
2018-03-14T10:59:34.923Z,8.03
2018-03-14T11:02:08.065Z,7.47
2018-03-14T11:04:36.290Z,6.90
2018-03-14T11:07:03.771Z,6.30
2018-03-14T11:09:32.842Z,6.30
2018-03-14T11:12:00.287Z,6.17
2018-03-14T11:14:27.749Z,6.33
2018-03-14T11:16:55.196Z,6.93
2018-03-14T11:19:23.422Z,6.30
2018-03-14T11:21:50.876Z,6.60
2018-03-14T11:24:19.087Z,5.67
2018-03-14T11:26:46.527Z,5.63
2018-03-14T11:29:13.997Z,6.00
2018-03-14T11:31:41.458Z,6.47
2018-03-14T11:34:08.905Z,6.23
2018-03-14T11:36:37.117Z,6.77
2018-03-14T11:39:04.574Z,6.37
2018-03-14T11:41:32.787Z,6.67
2018-03-14T11:44:01.008Z,6.17
2018-03-14T11:46:28.468Z,5.90
2018-03-14T11:48:55.919Z,5.27
2018-03-14T11:51:23.368Z,5.53
2018-03-14T11:53:51.649Z,6.00
2018-03-14T11:56:19.923Z,5.73
2018-03-14T11:58:47.333Z,6.30
2018-03-14T12:01:15.636Z,6.27
2018-03-14T12:03:43.071Z,6.07
2018-03-14T12:06:10.536Z,5.93
2018-03-14T12:08:37.985Z,5.67
2018-03-14T12:11:05.443Z,4.90
2018-03-14T12:13:32.884Z,5.63
2018-03-14T12:16:01.090Z,5.50
2018-03-14T12:18:28.548Z,5.03
2018-03-14T12:20:56.039Z,5.10
2018-03-14T12:23:23.498Z,5.33
2018-03-14T12:25:56.267Z,4.70
2018-03-14T12:28:23.719Z,4.93
2018-03-14T12:30:51.228Z,5.27
2018-03-14T12:33:18.612Z,5.07
2018-03-14T12:35:46.090Z,5.33
2018-03-14T12:38:14.368Z,5.20
2018-03-14T12:40:42.569Z,5.10
2018-03-14T12:43:10.040Z,4.60
2018-03-14T12:45:37.495Z,4.80
2018-03-14T12:48:05.485Z,5.27
2018-03-14T12:50:33.356Z,5.20
2018-03-14T12:53:01.127Z,5.10
2018-03-14T12:55:28.560Z,5.30
2018-03-14T12:57:56.015Z,5.10
2018-03-14T13:00:24.215Z,5.33
2018-03-14T13:02:51.665Z,5.70
2018-03-14T13:05:19.144Z,5.43
2018-03-14T13:07:46.588Z,5.13
2018-03-14T13:10:14.048Z,5.07
2018-03-14T13:12:41.500Z,5.83
2018-03-14T13:15:09.720Z,4.57
2018-03-14T13:17:37.187Z,5.43
2018-03-14T13:20:10.043Z,5.40
2018-03-14T13:22:38.235Z,5.73
2018-03-14T13:25:06.466Z,5.07
2018-03-14T13:27:33.920Z,5.77
2018-03-14T13:30:01.360Z,5.97
2018-03-14T13:32:28.822Z,5.87
2018-03-14T13:34:56.349Z,6.00
2018-03-14T13:37:24.568Z,6.07
2018-03-14T13:39:52.020Z,6.33
2018-03-14T13:42:19.498Z,7.30
2018-03-14T13:44:46.946Z,6.90
2018-03-14T13:47:14.393Z,6.30
2018-03-14T13:49:41.845Z,6.57
2018-03-14T13:52:10.042Z,6.57
2018-03-14T13:54:37.493Z,6.53
2018-03-14T13:57:04.934Z,7.13
2018-03-14T13:59:33.135Z,6.67
2018-03-14T14:02:00.616Z,6.97
2018-03-14T14:04:28.037Z,7.03
2018-03-14T14:06:56.296Z,7.57
2018-03-14T14:09:23.745Z,7.80
2018-03-14T14:11:51.216Z,7.80
2018-03-14T14:14:18.667Z,8.23
2018-03-14T14:16:46.100Z,9.47
2018-03-14T14:19:13.564Z,8.00
2018-03-14T14:21:41.030Z,8.70
2018-03-14T14:24:09.249Z,9.00
2018-03-14T14:26:36.702Z,8.23
2018-03-14T14:29:04.159Z,8.63
2018-03-14T14:31:31.611Z,8.97
2018-03-14T14:33:59.084Z,9.37
2018-03-14T14:36:26.528Z,8.67
2018-03-14T14:38:53.975Z,8.17
2018-03-14T14:41:21.433Z,8.90
2018-03-14T14:43:48.887Z,10.77
2018-03-14T14:46:17.105Z,10.87
2018-03-14T14:48:44.555Z,9.97
2018-03-14T14:51:12.788Z,10.07
2018-03-14T14:53:40.223Z,9.23
2018-03-14T14:56:07.676Z,9.87
2018-03-14T14:58:35.130Z,9.23
2018-03-14T15:01:02.595Z,9.00
2018-03-14T15:03:30.051Z,9.23
2018-03-14T15:05:57.509Z,9.87
2018-03-14T15:08:25.004Z,9.97
2018-03-14T15:10:52.480Z,9.27
2018-03-14T15:13:19.921Z,9.73
2018-03-14T15:15:48.875Z,8.93
2018-03-14T15:18:16.338Z,8.97
2018-03-14T15:20:44.565Z,9.23
2018-03-14T15:23:12.007Z,9.27
2018-03-14T15:25:40.259Z,8.93
2018-03-14T15:28:08.470Z,9.97
2018-03-14T15:30:35.969Z,9.77
2018-03-14T15:33:03.407Z,8.97
2018-03-14T15:35:30.880Z,9.30
2018-03-14T15:37:58.331Z,8.43
2018-03-14T15:40:25.814Z,7.90
2018-03-14T15:42:53.273Z,8.60
2018-03-14T15:45:21.484Z,8.70
2018-03-14T15:47:49.709Z,9.27
2018-03-14T15:50:17.181Z,8.57
2018-03-14T15:52:44.630Z,8.93
2018-03-14T15:55:12.111Z,8.90
2018-03-14T15:57:39.576Z,8.07
2018-03-14T16:00:07.045Z,8.73
2018-03-14T16:02:34.507Z,8.30
2018-03-14T16:05:01.967Z,9.17
2018-03-14T16:07:29.416Z,8.27
2018-03-14T16:09:56.898Z,8.50
2018-03-14T16:12:24.409Z,8.53
2018-03-14T16:14:51.819Z,9.20
2018-03-14T16:17:19.303Z,7.80
2018-03-14T16:19:46.826Z,8.50
2018-03-14T16:22:14.288Z,8.73
2018-03-14T16:24:41.768Z,8.87
2018-03-14T16:27:10.065Z,9.13
2018-03-14T16:29:37.586Z,7.97
2018-03-14T16:32:05.811Z,8.10
2018-03-14T16:34:33.286Z,8.23
2018-03-14T16:37:01.736Z,8.57
2018-03-14T16:39:29.208Z,8.50
2018-03-14T16:41:56.673Z,7.37
2018-03-14T16:44:24.131Z,7.80
2018-03-14T16:46:51.598Z,8.40
2018-03-14T16:49:19.065Z,7.73
2018-03-14T16:51:46.527Z,8.57
2018-03-14T16:54:13.999Z,8.50
2018-03-14T16:56:41.450Z,8.27
2018-03-14T16:59:08.937Z,7.30
2018-03-14T17:01:36.349Z,7.23
2018-03-14T17:04:03.812Z,8.53
2018-03-14T17:06:31.278Z,8.82
2018-03-14T17:08:58.738Z,7.80
2018-03-14T17:11:26.166Z,8.17
2018-03-14T17:13:54.371Z,7.47
2018-03-14T17:16:21.839Z,7.17
2018-03-14T17:18:49.262Z,8.07
2018-03-14T17:21:17.487Z,7.77
2018-03-14T17:23:44.935Z,7.53
2018-03-14T17:26:12.402Z,7.73
2018-03-14T17:28:39.852Z,7.53
2018-03-14T17:31:07.304Z,7.00
2018-03-14T17:33:35.531Z,7.63
2018-03-14T17:36:03.738Z,7.10
2018-03-14T17:38:31.195Z,7.63
2018-03-14T17:40:58.626Z,7.97
2018-03-14T17:43:26.172Z,7.40
2018-03-14T17:45:53.618Z,7.97
2018-03-14T17:48:21.071Z,7.97
2018-03-14T17:50:49.269Z,7.67
2018-03-14T17:53:16.733Z,8.03
2018-03-14T17:55:44.273Z,8.10
2018-03-14T17:58:12.525Z,7.70
2018-03-14T18:00:39.966Z,7.73
2018-03-14T18:03:07.406Z,7.83
2018-03-14T18:05:34.877Z,7.60
2018-03-14T18:08:02.322Z,7.57
2018-03-14T18:10:29.751Z,8.10
2018-03-14T18:12:57.213Z,7.03
2018-03-14T18:15:24.663Z,7.20
2018-03-14T18:17:52.111Z,7.07
2018-03-14T18:20:19.563Z,7.73
2018-03-14T18:22:47.020Z,7.40
2018-03-14T18:25:14.468Z,7.83
2018-03-14T18:27:41.906Z,7.47
2018-03-14T18:30:10.131Z,7.77
2018-03-14T18:32:37.590Z,7.63
2018-03-14T18:35:05.036Z,7.20
2018-03-14T18:37:32.505Z,7.10
2018-03-14T18:39:59.943Z,6.90
2018-03-14T18:42:28.158Z,7.77
2018-03-14T18:44:55.602Z,7.77
2018-03-14T18:47:23.830Z,8.40
2018-03-14T18:49:51.266Z,7.93
2018-03-14T18:52:18.697Z,8.07
2018-03-14T18:54:46.145Z,8.40
2018-03-14T18:57:14.365Z,8.13
2018-03-14T18:59:42.573Z,7.87
2018-03-14T19:02:10.040Z,10.60
2018-03-14T19:04:37.495Z,8.13
2018-03-14T19:07:04.920Z,8.50
2018-03-14T19:09:32.359Z,8.50
2018-03-14T19:12:00.562Z,8.57
2018-03-14T19:14:28.014Z,8.30
2018-03-14T19:16:55.462Z,8.10
2018-03-14T19:19:23.654Z,7.70
2018-03-14T19:21:51.104Z,8.10
2018-03-14T19:24:19.324Z,7.90
2018-03-14T19:26:46.791Z,7.00
2018-03-14T19:29:14.213Z,6.37
2018-03-14T19:31:41.649Z,5.60
2018-03-14T19:34:09.081Z,5.67
2018-03-14T19:36:36.534Z,5.70
2018-03-14T19:39:04.101Z,5.77
2018-03-14T19:41:31.487Z,7.72
2018-03-14T19:43:58.957Z,5.60
2018-03-14T19:46:26.396Z,5.90
2018-03-14T19:48:53.844Z,4.80
2018-03-14T19:51:21.292Z,5.17
2018-03-14T19:53:48.738Z,5.80
2018-03-14T19:56:16.174Z,5.40
2018-03-14T19:58:43.648Z,5.00
2018-03-14T20:01:11.857Z,5.70
2018-03-14T20:03:39.291Z,5.53
2018-03-14T20:06:07.491Z,5.37
2018-03-14T20:08:34.919Z,6.23
2018-03-14T20:11:02.370Z,5.30
2018-03-14T20:13:29.801Z,5.30
2018-03-14T20:15:57.242Z,5.47
2018-03-14T20:18:24.666Z,5.30
2018-03-14T20:20:52.106Z,6.33
2018-03-14T20:23:19.643Z,6.00
2018-03-14T20:25:47.058Z,6.00
2018-03-14T20:28:14.504Z,6.40
2018-03-14T20:30:41.958Z,6.40
2018-03-14T20:33:09.432Z,5.60
2018-03-14T20:35:36.885Z,6.33
2018-03-14T20:38:05.100Z,6.53
2018-03-14T20:40:33.309Z,6.80
2018-03-14T20:43:00.763Z,6.83
2018-03-14T20:45:28.216Z,6.57
2018-03-14T20:47:56.422Z,6.77
2018-03-14T20:50:23.982Z,6.43
2018-03-14T20:52:51.412Z,6.47
2018-03-14T20:55:19.621Z,6.63
2018-03-14T20:57:47.058Z,5.83
2018-03-14T21:00:15.277Z,6.57
2018-03-14T21:02:42.726Z,6.70
2018-03-14T21:05:10.162Z,6.70
2018-03-14T21:07:38.367Z,6.93
2018-03-14T21:10:05.801Z,6.77
2018-03-14T21:12:34.005Z,6.57
2018-03-14T21:15:01.431Z,6.53
2018-03-14T21:17:29.481Z,7.00
2018-03-14T21:19:56.944Z,6.90
2018-03-14T21:22:24.395Z,7.40
2018-03-14T21:24:51.863Z,6.87
2018-03-14T21:27:19.323Z,6.87
2018-03-14T21:29:46.770Z,7.00
2018-03-14T21:32:14.220Z,6.67
2018-03-14T21:34:41.658Z,7.20
2018-03-14T21:37:09.876Z,7.43
2018-03-14T21:39:37.331Z,7.13
2018-03-14T21:42:04.758Z,7.17
2018-03-14T21:44:32.978Z,8.03
2018-03-14T21:47:00.446Z,7.10
2018-03-14T21:49:27.875Z,7.30
2018-03-14T21:51:56.075Z,7.10
2018-03-14T21:54:23.514Z,7.50
2018-03-14T21:56:51.724Z,7.17
2018-03-14T21:59:19.182Z,8.40
2018-03-14T22:01:46.639Z,7.70
2018-03-14T22:04:14.115Z,8.23
2018-03-14T22:06:42.283Z,8.70
2018-03-14T22:09:09.743Z,8.20
2018-03-14T22:11:37.194Z,8.23
2018-03-14T22:14:05.408Z,8.30
2018-03-14T22:16:32.855Z,8.70
2018-03-14T22:19:00.288Z,8.50
2018-03-14T22:21:28.486Z,8.50
2018-03-14T22:23:55.964Z,9.70
2018-03-14T22:26:23.410Z,9.30
2018-03-14T22:28:50.864Z,8.90
2018-03-14T22:31:19.061Z,9.80
2018-03-14T22:33:46.522Z,8.93
2018-03-14T22:36:13.965Z,9.40
2018-03-14T22:38:42.731Z,9.03
2018-03-14T22:41:10.181Z,9.33
2018-03-14T22:43:37.628Z,9.20
2018-03-14T22:46:05.081Z,9.93
2018-03-14T22:48:32.519Z,10.07
2018-03-14T22:50:59.976Z,9.93
2018-03-14T22:53:27.422Z,10.30
2018-03-14T22:55:55.661Z,10.90
2018-03-14T22:58:23.103Z,10.50
2018-03-14T23:00:50.534Z,10.63
2018-03-14T23:03:18.757Z,10.37
2018-03-14T23:05:46.213Z,11.50
2018-03-14T23:08:13.657Z,10.50
2018-03-14T23:10:41.098Z,10.50
2018-03-14T23:13:09.310Z,10.30
2018-03-14T23:15:36.758Z,11.10
2018-03-14T23:18:04.210Z,11.50
2018-03-14T23:20:32.418Z,12.23
2018-03-14T23:22:59.871Z,11.10
2018-03-14T23:25:27.335Z,11.67
2018-03-14T23:27:55.562Z,11.30
2018-03-14T23:30:23.011Z,11.47
2018-03-14T23:32:50.464Z,12.17
2018-03-14T23:35:17.916Z,12.73
2018-03-14T23:37:46.270Z,12.00
2018-03-14T23:40:14.472Z,11.93
2018-03-14T23:42:41.937Z,11.57
2018-03-14T23:45:09.389Z,12.77
2018-03-14T23:47:36.822Z,11.47
2018-03-14T23:50:05.049Z,12.23
2018-03-14T23:52:32.474Z,13.00
2018-03-14T23:54:59.922Z,13.17
2018-03-14T23:57:27.358Z,11.90
2018-03-14T23:59:54.804Z,12.37
